Time;durP1;ratioP1;P1;durP2;ratioP2;P2;SDS_P1;SDS_P2;PMS_P1;PMS_P2;Temp;Humidity;BMP_temperature;BMP_pressure;BME280_temperature;BME280_humidity;BME280_pressure;Samples;Min_cycle;Max_cycle;Signal;HPM_P1;HPM_P2
2023/10/06 00:00:46;;;;;;;1.08;0.68;;;;;;;;;;5090208;28;20171;-61
2023/10/06 00:03:14;;;;;;;3.53;1.17;;;;;;;;;;5093500;28;20063;-60
2023/10/06 00:05:48;;;;;;;2.53;1.20;;;;;;;;;;5095436;28;20058;-61
2023/10/06 00:08:20;;;;;;;1.00;0.88;;;;;;;;;;5094275;28;20490;-60
2023/10/06 00:10:54;;;;;;;1.48;1.20;;;;;;;;;;5094855;28;20104;-60
2023/10/06 00:13:31;;;;;;;1.05;0.90;;;;;;;;;;5095259;28;20039;-60
2023/10/06 00:15:58;;;;;;;3.28;1.65;;;;;;;;;;5090691;28;20074;-61
2023/10/06 00:18:27;;;;;;;1.30;0.80;;;;;;;;;;5089918;28;20110;-60
2023/10/06 00:21:04;;;;;;;3.85;1.65;;;;;;;;;;5089802;28;20103;-61
2023/10/06 00:23:31;;;;;;;10.32;1.50;;;;;;;;;;5089683;28;20039;-60
2023/10/06 00:25:59;;;;;;;3.10;1.52;;;;;;;;;;5094111;28;20421;-60
2023/10/06 00:28:26;;;;;;;1.48;1.02;;;;;;;;;;5093575;28;20031;-60
2023/10/06 00:30:56;;;;;;;4.78;1.55;;;;;;;;;;5093283;28;20483;-60
2023/10/06 00:33:32;;;;;;;3.45;2.10;;;;;;;;;;5095018;28;20040;-60
2023/10/06 00:35:59;;;;;;;3.50;1.55;;;;;;;;;;5095014;28;20059;-60
2023/10/06 00:38:27;;;;;;;5.63;1.83;;;;;;;;;;5090122;28;20040;-60
2023/10/06 00:40:55;;;;;;;12.93;1.92;;;;;;;;;;5088998;28;20050;-60
2023/10/06 00:43:40;;;;;;;7.00;2.30;;;;;;;;;;5087361;28;20030;-60
2023/10/06 00:46:07;;;;;;;1.98;1.30;;;;;;;;;;5089685;28;20113;-60
2023/10/06 00:48:41;;;;;;;3.42;1.63;;;;;;;;;;5093741;28;20020;-60
2023/10/06 00:51:12;;;;;;;4.65;1.40;;;;;;;;;;5094998;28;20020;-60
2023/10/06 00:53:39;;;;;;;2.20;1.33;;;;;;;;;;5094774;28;20042;-60
2023/10/06 00:56:15;;;;;;;2.20;1.48;;;;;;;;;;5090802;28;20481;-60
2023/10/06 00:58:42;;;;;;;5.32;1.25;;;;;;;;;;5094531;28;20034;-60
2023/10/06 01:01:17;;;;;;;2.35;1.60;;;;;;;;;;5090089;28;20036;-59
2023/10/06 01:04:12;;;;;;;2.08;1.25;;;;;;;;;;5090176;28;20024;-60
2023/10/06 01:06:41;;;;;;;2.97;1.83;;;;;;;;;;5089516;28;20020;-59
2023/10/06 01:11:43;;;;;;;4.13;1.85;;;;;;;;;;5094981;28;20032;-60
2023/10/06 01:14:11;;;;;;;11.77;1.70;;;;;;;;;;5095168;28;20180;-60
2023/10/06 01:16:38;;;;;;;1.60;1.20;;;;;;;;;;5094792;28;20397;-59
2023/10/06 01:19:16;;;;;;;3.73;1.33;;;;;;;;;;5094985;28;20107;-60
2023/10/06 01:21:48;;;;;;;2.20;1.33;;;;;;;;;;5084184;28;20051;-60
2023/10/06 01:24:15;;;;;;;2.07;1.20;;;;;;;;;;5069454;28;20467;-59
2023/10/06 01:26:42;;;;;;;8.00;1.67;;;;;;;;;;5069395;28;20035;-60
2023/10/06 01:29:13;;;;;;;2.30;1.50;;;;;;;;;;5085131;28;20093;-60
2023/10/06 01:31:41;;;;;;;5.50;2.00;;;;;;;;;;5089545;28;20036;-60
2023/10/06 01:34:12;;;;;;;2.80;2.10;;;;;;;;;;5095256;28;20066;-59
2023/10/06 01:36:39;;;;;;;5.83;2.13;;;;;;;;;;5094746;28;20055;-58
2023/10/06 01:39:16;;;;;;;2.90;2.10;;;;;;;;;;5094777;28;20024;-60
2023/10/06 01:41:46;;;;;;;3.77;1.73;;;;;;;;;;5094415;28;20027;-59
2023/10/06 01:44:16;;;;;;;3.57;2.03;;;;;;;;;;5094219;28;20099;-59
2023/10/06 01:46:44;;;;;;;11.43;2.47;;;;;;;;;;5077256;28;20378;-62
2023/10/06 01:49:11;;;;;;;10.57;1.80;;;;;;;;;;5084848;28;20044;-61
2023/10/06 01:51:42;;;;;;;5.33;1.93;;;;;;;;;;5088890;28;20028;-61
2023/10/06 01:54:13;;;;;;;2.47;1.60;;;;;;;;;;5080303;28;20727;-61
2023/10/06 01:56:42;;;;;;;2.23;1.43;;;;;;;;;;5093094;28;20023;-62
2023/10/06 01:59:14;;;;;;;3.67;1.40;;;;;;;;;;5074343;28;20040;-61
2023/10/06 02:01:41;;;;;;;1.80;1.03;;;;;;;;;;5089053;28;20020;-61
2023/10/06 02:04:11;;;;;;;9.20;1.80;;;;;;;;;;5091351;28;20505;-61
2023/10/06 02:06:38;;;;;;;3.30;1.73;;;;;;;;;;5077431;28;20091;-61
2023/10/06 02:09:06;;;;;;;3.03;1.77;;;;;;;;;;5088781;28;20024;-61
2023/10/06 02:11:34;;;;;;;2.30;1.43;;;;;;;;;;5089100;28;20036;-61
2023/10/06 02:14:00;;;;;;;1.27;1.03;;;;;;;;;;5088433;28;20024;-61
2023/10/06 02:16:27;;;;;;;2.57;1.70;;;;;;;;;;5088290;28;20066;-61
2023/10/06 02:18:54;;;;;;;1.63;1.27;;;;;;;;;;5092840;28;20543;-61
2023/10/06 02:21:24;;;;;;;1.50;1.00;;;;;;;;;;5090462;28;20126;-60
2023/10/06 02:23:51;;;;;;;3.23;1.67;;;;;;;;;;5093019;28;20020;-62
2023/10/06 02:26:18;;;;;;;2.20;1.60;;;;;;;;;;5093116;28;20024;-61
2023/10/06 02:28:48;;;;;;;1.47;0.87;;;;;;;;;;5093735;28;20024;-61
2023/10/06 02:31:21;;;;;;;1.47;1.20;;;;;;;;;;5082948;28;20032;-61
2023/10/06 02:33:51;;;;;;;2.67;1.53;;;;;;;;;;5068718;28;20143;-61
2023/10/06 02:36:21;;;;;;;1.67;1.20;;;;;;;;;;5068574;28;20078;-61
2023/10/06 02:38:54;;;;;;;1.93;1.30;;;;;;;;;;5068598;28;20028;-61
2023/10/06 02:41:25;;;;;;;2.53;1.30;;;;;;;;;;5078601;28;20031;-61
2023/10/06 02:43:53;;;;;;;3.60;1.83;;;;;;;;;;5093865;28;20016;-61
2023/10/06 02:46:26;;;;;;;2.20;1.47;;;;;;;;;;5084706;28;20471;-62
2023/10/06 02:48:52;;;;;;;2.50;1.37;;;;;;;;;;5073421;28;20541;-60
2023/10/06 02:51:47;;;;;;;4.80;1.33;;;;;;;;;;5073252;28;20020;-60
2023/10/06 02:56:43;;;;;;;5.37;1.73;;;;;;;;;;5087304;28;20032;-61
2023/10/06 02:59:43;;;;;;;2.97;1.23;;;;;;;;;;5087395;28;20099;-60
2023/10/06 03:02:06;;;;;;;2.37;1.07;;;;;;;;;;5085244;28;20040;-61
2023/10/06 03:04:36;;;;;;;3.23;1.80;;;;;;;;;;5093349;28;20035;-60
2023/10/06 03:07:11;;;;;;;1.73;1.23;;;;;;;;;;5092865;28;20016;-60
2023/10/06 03:09:43;;;;;;;4.37;1.77;;;;;;;;;;5093295;28;20031;-61
2023/10/06 03:12:26;;;;;;;2.73;1.83;;;;;;;;;;5093063;28;20379;-61
2023/10/06 03:14:54;;;;;;;8.67;2.10;;;;;;;;;;5092053;28;20024;-61
2023/10/06 03:17:21;;;;;;;2.53;1.80;;;;;;;;;;5087852;28;20398;-60
2023/10/06 03:22:38;;;;;;;2.97;1.87;;;;;;;;;;5087846;28;20517;-60
2023/10/06 03:25:15;;;;;;;2.40;1.30;;;;;;;;;;5088595;28;20032;-60
2023/10/06 03:27:41;;;;;;;2.97;1.63;;;;;;;;;;5092370;28;20543;-61
2023/10/06 03:30:18;;;;;;;2.73;1.53;;;;;;;;;;5093094;28;20493;-60
2023/10/06 03:32:48;;;;;;;1.33;0.97;;;;;;;;;;5092953;28;20475;-60
2023/10/06 03:35:35;;;;;;;1.63;1.33;;;;;;;;;;5092955;28;20035;-60
2023/10/06 03:41:31;;;;;;;2.57;1.70;;;;;;;;;;5087280;28;20036;-60
2023/10/06 03:46:18;;;;;;;3.03;2.03;;;;;;;;;;5074570;28;20033;-61
2023/10/06 03:48:48;;;;;;;1.93;1.50;;;;;;;;;;5075536;28;20152;-61
2023/10/06 03:51:16;;;;;;;4.47;2.40;;;;;;;;;;5085611;28;20107;-60
2023/10/06 03:53:44;;;;;;;4.07;1.50;;;;;;;;;;5088944;28;20032;-60
2023/10/06 03:56:16;;;;;;;3.27;2.10;;;;;;;;;;5091407;28;20417;-60
2023/10/06 03:58:46;;;;;;;4.90;2.00;;;;;;;;;;5092187;28;20024;-61
2023/10/06 04:01:16;;;;;;;3.70;1.73;;;;;;;;;;5089358;28;20466;-60
2023/10/06 04:03:43;;;;;;;2.53;1.63;;;;;;;;;;5086985;28;20111;-61
2023/10/06 04:06:13;;;;;;;2.57;1.60;;;;;;;;;;5087311;28;20039;-61
2023/10/06 04:08:46;;;;;;;4.27;1.80;;;;;;;;;;5087467;28;20028;-60
2023/10/06 04:11:14;;;;;;;1.33;1.00;;;;;;;;;;5089926;28;20032;-60
2023/10/06 04:13:41;;;;;;;1.43;1.27;;;;;;;;;;5092021;28;20032;-61
2023/10/06 04:16:08;;;;;;;4.33;1.67;;;;;;;;;;5092563;28;20055;-61
2023/10/06 04:18:35;;;;;;;2.47;1.93;;;;;;;;;;5092599;28;20421;-61
2023/10/06 04:21:03;;;;;;;3.43;1.87;;;;;;;;;;5092485;28;20555;-60
2023/10/06 04:23:30;;;;;;;1.40;1.10;;;;;;;;;;5089781;28;20027;-60
2023/10/06 04:25:57;;;;;;;1.67;1.40;;;;;;;;;;5086925;28;20028;-61
2023/10/06 04:28:25;;;;;;;0.83;0.70;;;;;;;;;;5087038;28;20040;-61
2023/10/06 04:30:51;;;;;;;1.77;1.30;;;;;;;;;;5089990;28;20107;-60
2023/10/06 04:33:18;;;;;;;2.70;1.63;;;;;;;;;;5092636;28;20031;-60
2023/10/06 04:38:31;;;;;;;1.13;1.00;;;;;;;;;;5096246;28;20035;-61
2023/10/06 04:40:58;;;;;;;1.97;1.37;;;;;;;;;;5095747;28;20024;-61
2023/10/06 04:43:26;;;;;;;1.27;1.07;;;;;;;;;;5095876;28;20017;-61
2023/10/06 04:45:55;;;;;;;1.13;0.93;;;;;;;;;;5093542;28;20012;-61
2023/10/06 04:48:21;;;;;;;1.70;1.07;;;;;;;;;;5090035;28;20028;-61
2023/10/06 04:50:51;;;;;;;2.70;1.13;;;;;;;;;;5090195;28;20587;-61
2023/10/06 04:53:18;;;;;;;1.07;0.77;;;;;;;;;;5090359;28;20020;-61
2023/10/06 04:55:45;;;;;;;1.37;1.13;;;;;;;;;;5091583;28;20111;-61
2023/10/06 04:58:15;;;;;;;2.43;1.43;;;;;;;;;;5084504;28;20111;-61
2023/10/06 05:00:46;;;;;;;4.77;1.47;;;;;;;;;;5079805;28;20036;-60
2023/10/06 05:03:13;;;;;;;3.17;1.30;;;;;;;;;;5082003;28;20028;-61
2023/10/06 05:05:42;;;;;;;1.90;1.30;;;;;;;;;;5075263;28;20027;-60
2023/10/06 05:08:09;;;;;;;2.07;1.20;;;;;;;;;;5073616;28;20029;-60
2023/10/06 05:10:39;;;;;;;2.80;1.67;;;;;;;;;;5070258;28;20052;-61
2023/10/06 05:13:07;;;;;;;4.03;1.40;;;;;;;;;;5082096;28;20036;-60
2023/10/06 05:15:40;;;;;;;2.53;1.40;;;;;;;;;;5087073;28;20379;-61
2023/10/06 05:18:07;;;;;;;2.60;1.70;;;;;;;;;;5090316;28;20040;-61
2023/10/06 05:20:35;;;;;;;2.47;1.17;;;;;;;;;;5095059;28;20032;-61
2023/10/06 05:23:14;;;;;;;1.23;1.00;;;;;;;;;;5094876;28;20036;-61
2023/10/06 05:25:41;;;;;;;2.13;1.27;;;;;;;;;;5094781;28;20103;-61
2023/10/06 05:28:11;;;;;;;5.10;1.00;;;;;;;;;;5095094;28;20020;-61
2023/10/06 05:30:39;;;;;;;3.30;1.60;;;;;;;;;;5093821;28;20024;-61
2023/10/06 05:33:06;;;;;;;1.77;1.20;;;;;;;;;;5089023;28;20035;-61
2023/10/06 05:35:38;;;;;;;2.37;1.40;;;;;;;;;;5089445;28;20146;-61
2023/10/06 05:38:08;;;;;;;2.23;1.43;;;;;;;;;;5088872;28;20432;-61
2023/10/06 05:40:35;;;;;;;1.17;1.00;;;;;;;;;;5089297;28;20364;-61
2023/10/06 05:43:04;;;;;;;2.00;1.10;;;;;;;;;;5094171;28;20028;-61
2023/10/06 05:45:31;;;;;;;1.30;1.20;;;;;;;;;;5094536;28;20031;-61
2023/10/06 05:48:06;;;;;;;3.60;1.40;;;;;;;;;;5094693;28;20048;-62
2023/10/06 05:50:35;;;;;;;2.20;1.27;;;;;;;;;;5094413;28;20103;-61
2023/10/06 05:53:04;;;;;;;2.80;1.60;;;;;;;;;;5093651;28;20028;-61
2023/10/06 05:55:31;;;;;;;1.90;0.90;;;;;;;;;;5088793;28;20386;-61
2023/10/06 05:58:00;;;;;;;1.83;1.20;;;;;;;;;;5089054;28;20497;-61
2023/10/06 06:00:30;;;;;;;2.77;1.07;;;;;;;;;;5088555;28;20063;-61
2023/10/06 06:03:11;;;;;;;2.30;1.17;;;;;;;;;;5088942;28;20016;-61
2023/10/06 06:05:41;;;;;;;3.07;0.97;;;;;;;;;;5094126;28;20020;-61
2023/10/06 06:08:10;;;;;;;1.53;1.03;;;;;;;;;;5093994;28;20103;-61
2023/10/06 06:10:38;;;;;;;1.63;1.13;;;;;;;;;;5094260;28;20397;-61
2023/10/06 06:13:05;;;;;;;3.03;1.23;;;;;;;;;;5094143;28;20066;-61
2023/10/06 06:15:32;;;;;;;1.43;1.23;;;;;;;;;;5092884;28;20028;-61
2023/10/06 06:18:00;;;;;;;1.73;1.23;;;;;;;;;;5088345;28;20035;-61
2023/10/06 06:20:27;;;;;;;1.17;1.00;;;;;;;;;;5088364;28;20417;-61
2023/10/06 06:23:02;;;;;;;1.80;0.90;;;;;;;;;;5088055;28;20028;-61
2023/10/06 06:25:30;;;;;;;1.45;1.15;;;;;;;;;;5088495;28;20040;-61
2023/10/06 06:27:59;;;;;;;1.70;1.33;;;;;;;;;;5093688;28;20105;-61
2023/10/06 06:30:26;;;;;;;2.77;1.50;;;;;;;;;;5093813;28;20081;-61
2023/10/06 06:32:53;;;;;;;1.67;1.13;;;;;;;;;;5093381;28;20017;-60
2023/10/06 06:35:21;;;;;;;1.87;1.03;;;;;;;;;;5093770;28;20368;-60
2023/10/06 06:37:51;;;;;;;1.40;1.10;;;;;;;;;;5093194;28;20521;-61
2023/10/06 06:40:22;;;;;;;2.97;1.40;;;;;;;;;;5087864;28;20756;-60
2023/10/06 06:42:49;;;;;;;3.73;1.73;;;;;;;;;;5088082;28;20028;-61
2023/10/06 06:45:16;;;;;;;1.60;1.10;;;;;;;;;;5087524;28;20020;-61
2023/10/06 06:47:43;;;;;;;1.30;1.00;;;;;;;;;;5087890;28;20032;-61
2023/10/06 06:50:15;;;;;;;8.77;1.17;;;;;;;;;;5093199;28;20020;-61
2023/10/06 06:52:41;;;;;;;1.47;1.03;;;;;;;;;;5092855;28;20024;-61
2023/10/06 06:55:12;;;;;;;1.33;1.07;;;;;;;;;;5092631;28;20020;-60
2023/10/06 06:57:49;;;;;;;1.23;0.90;;;;;;;;;;5093216;28;20036;-61
2023/10/06 07:00:17;;;;;;;0.80;0.73;;;;;;;;;;5092969;28;20028;-61
2023/10/06 07:02:47;;;;;;;1.40;1.07;;;;;;;;;;5087546;28;20474;-61
2023/10/06 07:05:15;;;;;;;0.60;0.60;;;;;;;;;;5087714;28;20417;-61
2023/10/06 07:07:43;;;;;;;1.70;1.23;;;;;;;;;;5087192;28;20501;-61
2023/10/06 07:10:14;;;;;;;3.00;1.30;;;;;;;;;;5087556;28;20452;-61
2023/10/06 07:12:43;;;;;;;1.63;1.13;;;;;;;;;;5092969;28;20509;-61
2023/10/06 07:15:20;;;;;;;1.50;1.03;;;;;;;;;;5093059;28;20028;-61
2023/10/06 07:17:48;;;;;;;1.00;0.90;;;;;;;;;;5092744;28;20371;-61
2023/10/06 07:20:18;;;;;;;1.83;1.43;;;;;;;;;;5092897;28;20071;-61
2023/10/06 07:22:48;;;;;;;1.87;1.13;;;;;;;;;;5093005;28;20020;-61
2023/10/06 07:25:16;;;;;;;1.40;1.03;;;;;;;;;;5087550;28;20028;-60
2023/10/06 07:27:43;;;;;;;1.60;1.20;;;;;;;;;;5087169;28;20032;-62
2023/10/06 07:30:11;;;;;;;1.60;1.17;;;;;;;;;;5087616;28;20533;-61
2023/10/06 07:32:41;;;;;;;1.83;1.20;;;;;;;;;;5087385;28;20475;-61
2023/10/06 07:35:18;;;;;;;1.80;1.20;;;;;;;;;;5092327;28;20028;-60
2023/10/06 07:37:45;;;;;;;1.50;0.90;;;;;;;;;;5092999;28;20497;-61
2023/10/06 07:40:13;;;;;;;1.13;0.90;;;;;;;;;;5092225;28;20031;-61
2023/10/06 07:42:41;;;;;;;1.77;1.23;;;;;;;;;;5093157;28;20103;-61
2023/10/06 07:45:08;;;;;;;7.43;1.53;;;;;;;;;;5092642;28;20031;-61
2023/10/06 07:47:36;;;;;;;2.60;1.27;;;;;;;;;;5087465;28;20035;-60
2023/10/06 07:50:05;;;;;;;1.57;1.20;;;;;;;;;;5087220;28;20058;-61
2023/10/06 07:52:35;;;;;;;1.67;1.27;;;;;;;;;;5087024;28;20028;-61
2023/10/06 07:55:11;;;;;;;2.60;1.67;;;;;;;;;;5087214;28;20039;-61
2023/10/06 07:57:41;;;;;;;9.83;2.83;;;;;;;;;;5091937;28;20031;-61
2023/10/06 08:00:18;;;;;;;3.27;1.70;;;;;;;;;;5092530;28;20055;-61
2023/10/06 08:02:47;;;;;;;2.93;1.60;;;;;;;;;;5092609;28;20032;-62
2023/10/06 08:05:17;;;;;;;1.30;1.20;;;;;;;;;;5094254;28;20085;-61
2023/10/06 08:07:44;;;;;;;4.13;1.87;;;;;;;;;;5096629;28;20486;-61
2023/10/06 08:10:14;;;;;;;3.47;1.37;;;;;;;;;;5091065;28;20032;-61
2023/10/06 08:12:43;;;;;;;1.20;1.10;;;;;;;;;;5090979;28;20104;-61
2023/10/06 08:15:10;;;;;;;2.70;1.50;;;;;;;;;;5090951;28;20442;-61
2023/10/06 08:17:37;;;;;;;2.67;1.57;;;;;;;;;;5090663;28;20024;-61
2023/10/06 08:20:07;;;;;;;3.60;1.37;;;;;;;;;;5095207;28;20115;-61
2023/10/06 08:22:34;;;;;;;1.60;1.13;;;;;;;;;;5096352;28;20031;-60
2023/10/06 08:25:05;;;;;;;2.93;1.50;;;;;;;;;;5095840;28;20027;-61
2023/10/06 08:27:35;;;;;;;1.53;1.27;;;;;;;;;;5096154;28;20182;-61
2023/10/06 08:30:07;;;;;;;2.07;1.37;;;;;;;;;;5096093;28;20031;-61
2023/10/06 08:32:34;;;;;;;3.40;1.53;;;;;;;;;;5090776;28;20383;-61
2023/10/06 08:35:00;;;;;;;1.63;1.23;;;;;;;;;;5090394;28;20103;-61
2023/10/06 08:37:27;;;;;;;2.00;1.33;;;;;;;;;;5090516;28;20028;-61
2023/10/06 08:39:55;;;;;;;2.20;1.47;;;;;;;;;;5090362;28;20368;-61
2023/10/06 08:42:22;;;;;;;1.97;1.37;;;;;;;;;;5094513;28;20479;-60
2023/10/06 08:44:48;;;;;;;3.47;1.60;;;;;;;;;;5095847;28;20103;-60
2023/10/06 08:47:15;;;;;;;2.33;1.53;;;;;;;;;;5095479;28;20043;-61
2023/10/06 08:49:42;;;;;;;1.73;1.37;;;;;;;;;;5095465;28;20099;-61
2023/10/06 08:52:09;;;;;;;2.77;1.80;;;;;;;;;;5095777;28;20027;-61
2023/10/06 08:54:36;;;;;;;2.20;1.73;;;;;;;;;;5091344;28;20438;-61
2023/10/06 08:57:03;;;;;;;1.87;1.27;;;;;;;;;;5089771;28;20019;-61
2023/10/06 08:59:32;;;;;;;3.93;1.73;;;;;;;;;;5089935;28;20099;-61
2023/10/06 09:01:59;;;;;;;2.83;1.47;;;;;;;;;;5089984;28;20024;-61
2023/10/06 09:04:30;;;;;;;2.30;1.53;;;;;;;;;;5093151;28;20028;-61
2023/10/06 09:07:08;;;;;;;2.03;1.67;;;;;;;;;;5095428;28;20023;-61
2023/10/06 09:09:36;;;;;;;1.90;1.50;;;;;;;;;;5095035;28;20028;-61
2023/10/06 09:12:03;;;;;;;1.70;1.33;;;;;;;;;;5095153;28;20032;-60
2023/10/06 09:14:31;;;;;;;1.87;1.23;;;;;;;;;;5095253;28;20035;-61
2023/10/06 09:17:01;;;;;;;1.40;1.20;;;;;;;;;;5090380;28;20052;-60
2023/10/06 09:19:49;;;;;;;2.40;1.60;;;;;;;;;;5089494;28;20495;-60
2023/10/06 09:22:16;;;;;;;1.97;1.40;;;;;;;;;;5089321;28;20107;-61
2023/10/06 09:24:55;;;;;;;2.00;1.40;;;;;;;;;;5089423;28;20478;-61
2023/10/06 09:27:25;;;;;;;3.20;1.73;;;;;;;;;;5093727;28;20577;-61
2023/10/06 09:30:01;;;;;;;1.40;1.20;;;;;;;;;;5094987;28;20028;-61
2023/10/06 09:32:28;;;;;;;1.80;1.50;;;;;;;;;;5094593;28;20028;-61
2023/10/06 09:34:57;;;;;;;1.17;0.77;;;;;;;;;;5094592;28;20020;-61
2023/10/06 09:37:27;;;;;;;1.80;1.27;;;;;;;;;;5094853;28;20036;-61
2023/10/06 09:40:18;;;;;;;2.63;1.60;;;;;;;;;;5089251;28;20046;-61
2023/10/06 09:42:47;;;;;;;1.40;1.10;;;;;;;;;;5069157;28;20028;-61
2023/10/06 09:45:16;;;;;;;1.83;1.40;;;;;;;;;;5071637;28;20032;-61
2023/10/06 09:47:50;;;;;;;1.83;1.40;;;;;;;;;;5089066;28;20047;-61
2023/10/06 09:50:19;;;;;;;1.50;1.17;;;;;;;;;;5094528;28;20494;-61
2023/10/06 09:52:47;;;;;;;1.50;1.10;;;;;;;;;;5094469;28;20058;-61
2023/10/06 09:55:17;;;;;;;3.13;1.77;;;;;;;;;;5094534;28;20499;-61
2023/10/06 09:57:47;;;;;;;1.23;0.97;;;;;;;;;;5094219;28;20028;-61
2023/10/06 10:00:18;;;;;;;1.53;1.33;;;;;;;;;;5094175;28;20032;-61
2023/10/06 10:02:46;;;;;;;1.43;1.00;;;;;;;;;;5088943;28;20020;-61
2023/10/06 10:05:13;;;;;;;1.47;1.13;;;;;;;;;;5088680;28;20509;-61
2023/10/06 10:07:41;;;;;;;1.60;1.17;;;;;;;;;;5088557;28;20020;-61
2023/10/06 10:10:14;;;;;;;2.53;1.80;;;;;;;;;;5088443;28;20031;-61
2023/10/06 10:12:43;;;;;;;10.73;2.07;;;;;;;;;;5093567;28;20471;-61
2023/10/06 10:15:24;;;;;;;2.07;1.53;;;;;;;;;;5094128;28;20425;-61
2023/10/06 10:18:05;;;;;;;1.77;1.43;;;;;;;;;;5094126;28;20028;-61
2023/10/06 10:20:32;;;;;;;3.57;1.60;;;;;;;;;;5093784;28;20044;-61
2023/10/06 10:23:01;;;;;;;2.10;1.43;;;;;;;;;;5093275;28;20498;-61
2023/10/06 10:25:30;;;;;;;3.13;2.10;;;;;;;;;;5088313;28;20036;-60
2023/10/06 10:28:16;;;;;;;1.13;1.00;;;;;;;;;;5088073;28;20379;-61
2023/10/06 10:31:17;;;;;;;1.43;1.00;;;;;;;;;;5088546;28;20035;-61
2023/10/06 10:33:47;;;;;;;6.77;1.20;;;;;;;;;;5089811;28;20383;-61
2023/10/06 10:36:17;;;;;;;2.70;1.77;;;;;;;;;;5093681;28;20425;-61
2023/10/06 10:38:44;;;;;;;3.13;1.80;;;;;;;;;;5093438;28;20122;-60
2023/10/06 10:41:11;;;;;;;2.30;1.57;;;;;;;;;;5093391;28;20107;-61
2023/10/06 10:43:38;;;;;;;4.57;2.67;;;;;;;;;;5093748;28;20095;-60
2023/10/06 10:46:08;;;;;;;1.63;1.20;;;;;;;;;;5091470;28;20031;-60
2023/10/06 10:48:37;;;;;;;2.13;1.33;;;;;;;;;;5088078;28;20032;-61
2023/10/06 10:51:06;;;;;;;2.27;1.63;;;;;;;;;;5087295;28;20040;-61
2023/10/06 10:53:36;;;;;;;1.70;1.27;;;;;;;;;;5087065;28;20110;-60
2023/10/06 10:56:03;;;;;;;2.47;1.67;;;;;;;;;;5089266;28;20085;-60
2023/10/06 10:58:46;;;;;;;1.93;1.70;;;;;;;;;;5093349;28;20032;-60
2023/10/06 11:01:23;;;;;;;3.83;1.33;;;;;;;;;;5092749;28;20044;-60
2023/10/06 11:04:08;;;;;;;1.87;1.37;;;;;;;;;;5092896;28;20093;-61
2023/10/06 11:06:37;;;;;;;2.00;1.40;;;;;;;;;;5093491;28;20471;-61
2023/10/06 11:11:49;;;;;;;3.07;1.57;;;;;;;;;;5087932;28;20043;-60
2023/10/06 11:14:16;;;;;;;1.17;0.97;;;;;;;;;;5087407;28;20024;-60
2023/10/06 11:16:49;;;;;;;2.20;1.33;;;;;;;;;;5087722;28;20043;-60
2023/10/06 11:19:16;;;;;;;1.70;1.40;;;;;;;;;;5090461;28;20021;-61
2023/10/06 11:21:48;;;;;;;4.03;1.80;;;;;;;;;;5092641;28;20031;-60
2023/10/06 11:24:28;;;;;;;1.83;1.10;;;;;;;;;;5092528;28;20348;-59
2023/10/06 11:26:55;;;;;;;3.40;1.83;;;;;;;;;;5091349;28;20032;-59
2023/10/06 11:29:31;;;;;;;1.77;1.33;;;;;;;;;;5092773;28;20055;-60
2023/10/06 11:32:01;;;;;;;1.93;1.27;;;;;;;;;;5088853;28;20547;-59
2023/10/06 11:34:28;;;;;;;4.93;2.33;;;;;;;;;;5087134;28;20031;-60
2023/10/06 11:36:56;;;;;;;2.63;1.93;;;;;;;;;;5087287;28;20109;-60
2023/10/06 11:39:24;;;;;;;1.57;1.20;;;;;;;;;;5087577;28;20024;-60
2023/10/06 11:41:52;;;;;;;2.17;1.70;;;;;;;;;;5094696;28;20025;-60
2023/10/06 11:44:19;;;;;;;1.20;1.00;;;;;;;;;;5097039;28;20474;-59
2023/10/06 11:46:51;;;;;;;2.20;1.57;;;;;;;;;;5096849;28;20032;-60
2023/10/06 11:49:20;;;;;;;1.27;0.90;;;;;;;;;;5096967;28;20025;-59
2023/10/06 11:51:47;;;;;;;3.80;1.80;;;;;;;;;;5095704;28;20028;-59
2023/10/06 11:54:14;;;;;;;1.27;1.10;;;;;;;;;;5093179;28;20067;-60
2023/10/06 11:56:51;;;;;;;2.00;1.30;;;;;;;;;;5091633;28;20035;-57
2023/10/06 11:59:22;;;;;;;1.30;1.10;;;;;;;;;;5091052;28;20073;-59
2023/10/06 12:01:49;;;;;;;2.43;1.83;;;;;;;;;;5090699;28;20036;-59
2023/10/06 12:04:31;;;;;;;1.77;1.47;;;;;;;;;;5090846;28;20028;-59
2023/10/06 12:07:01;;;;;;;2.97;1.57;;;;;;;;;;5095313;28;20474;-59
2023/10/06 12:09:34;;;;;;;3.13;2.40;;;;;;;;;;5095778;28;20065;-59
2023/10/06 12:12:01;;;;;;;2.53;2.17;;;;;;;;;;5095765;28;20048;-59
2023/10/06 12:14:28;;;;;;;2.33;1.90;;;;;;;;;;5094666;28;20031;-59
2023/10/06 12:16:55;;;;;;;1.93;1.43;;;;;;;;;;5095642;28;20383;-59
2023/10/06 12:19:23;;;;;;;1.37;1.10;;;;;;;;;;5092170;28;20032;-59
2023/10/06 12:21:53;;;;;;;2.47;1.67;;;;;;;;;;5090605;28;20028;-59
2023/10/06 12:24:22;;;;;;;2.93;1.60;;;;;;;;;;5090771;28;20032;-60
2023/10/06 12:26:48;;;;;;;2.47;1.87;;;;;;;;;;5090204;28;20099;-59
2023/10/06 12:29:16;;;;;;;1.27;0.90;;;;;;;;;;5090554;28;20032;-59
2023/10/06 12:31:46;;;;;;;10.33;1.57;;;;;;;;;;5094054;28;20534;-59
2023/10/06 12:34:16;;;;;;;3.83;2.47;;;;;;;;;;5095159;28;20663;-59
2023/10/06 12:36:49;;;;;;;2.40;2.00;;;;;;;;;;5095265;28;20085;-59
2023/10/06 12:39:34;;;;;;;1.40;1.00;;;;;;;;;;5095020;28;20024;-59
2023/10/06 12:42:03;;;;;;;1.50;1.20;;;;;;;;;;5094883;28;20482;-59
2023/10/06 12:44:30;;;;;;;2.20;1.60;;;;;;;;;;5091191;28;20040;-59
2023/10/06 12:47:03;;;;;;;3.00;1.87;;;;;;;;;;5090294;28;20077;-59
2023/10/06 12:49:33;;;;;;;3.10;1.80;;;;;;;;;;5089996;28;20050;-59
2023/10/06 12:51:59;;;;;;;5.43;1.57;;;;;;;;;;5089871;28;20107;-60
2023/10/06 12:54:26;;;;;;;3.67;2.20;;;;;;;;;;5090209;28;20024;-59
2023/10/06 12:56:53;;;;;;;3.77;2.37;;;;;;;;;;5093846;28;20028;-59
2023/10/06 12:59:20;;;;;;;3.77;2.53;;;;;;;;;;5094711;28;20551;-59
2023/10/06 13:01:49;;;;;;;4.50;2.70;;;;;;;;;;5094584;28;20043;-59
2023/10/06 13:04:16;;;;;;;3.60;2.60;;;;;;;;;;5094386;28;20374;-59
2023/10/06 13:06:42;;;;;;;8.80;1.90;;;;;;;;;;5094446;28;20036;-60
2023/10/06 13:09:17;;;;;;;2.27;1.87;;;;;;;;;;5091320;28;20592;-60
2023/10/06 13:11:43;;;;;;;2.17;1.77;;;;;;;;;;5089528;28;20039;-59
2023/10/06 13:14:11;;;;;;;5.80;1.77;;;;;;;;;;5089910;28;20020;-59
2023/10/06 13:16:41;;;;;;;1.90;1.60;;;;;;;;;;5089582;28;20493;-59
2023/10/06 13:19:07;;;;;;;3.80;2.13;;;;;;;;;;5089398;28;20113;-59
2023/10/06 13:21:34;;;;;;;5.30;2.33;;;;;;;;;;5093174;28;20169;-59
2023/10/06 13:24:04;;;;;;;2.30;1.77;;;;;;;;;;5093910;28;20434;-59
2023/10/06 13:26:31;;;;;;;3.67;2.13;;;;;;;;;;5094112;28;20032;-59
2023/10/06 13:28:58;;;;;;;5.53;2.57;;;;;;;;;;5093725;28;20013;-60
2023/10/06 13:31:24;;;;;;;4.27;2.20;;;;;;;;;;5093741;28;20024;-59
2023/10/06 13:33:51;;;;;;;2.93;2.10;;;;;;;;;;5091645;28;20036;-59
2023/10/06 13:36:18;;;;;;;3.63;2.27;;;;;;;;;;5089342;28;20035;-59
2023/10/06 13:38:45;;;;;;;3.70;1.60;;;;;;;;;;5088948;28;20036;-60
2023/10/06 13:41:12;;;;;;;5.90;2.90;;;;;;;;;;5089138;28;20028;-59
2023/10/06 13:43:38;;;;;;;2.17;1.47;;;;;;;;;;5089246;28;20020;-59
2023/10/06 13:46:06;;;;;;;2.00;1.20;;;;;;;;;;5091795;28;20024;-59
2023/10/06 13:48:34;;;;;;;2.90;1.10;;;;;;;;;;5093433;28;20028;-59
2023/10/06 13:51:02;;;;;;;2.60;1.57;;;;;;;;;;5093827;28;20052;-60
2023/10/06 13:53:29;;;;;;;4.23;2.40;;;;;;;;;;5093723;28;20047;-59
2023/10/06 13:55:56;;;;;;;3.50;2.17;;;;;;;;;;5093611;28;20556;-59
2023/10/06 13:58:26;;;;;;;3.77;1.70;;;;;;;;;;5091628;28;20028;-60
2023/10/06 14:00:56;;;;;;;3.63;2.13;;;;;;;;;;5088451;28;20036;-59
2023/10/06 14:03:22;;;;;;;1.73;1.30;;;;;;;;;;5087813;28;20064;-60
2023/10/06 14:05:55;;;;;;;2.17;1.67;;;;;;;;;;5088789;28;20082;-60
2023/10/06 14:08:22;;;;;;;2.30;1.70;;;;;;;;;;5088796;28;20111;-59
2023/10/06 14:10:50;;;;;;;1.17;1.07;;;;;;;;;;5091165;28;20028;-59
2023/10/06 14:13:17;;;;;;;1.10;1.00;;;;;;;;;;5092966;28;20171;-60
2023/10/06 14:16:09;;;;;;;2.53;1.73;;;;;;;;;;5092721;28;20024;-60
2023/10/06 14:18:38;;;;;;;4.20;1.60;;;;;;;;;;5093341;28;20096;-60
2023/10/06 14:21:11;;;;;;;2.13;1.53;;;;;;;;;;5093298;28;20036;-60
2023/10/06 14:23:47;;;;;;;1.53;1.27;;;;;;;;;;5090761;28;20440;-60
2023/10/06 14:26:14;;;;;;;2.37;1.97;;;;;;;;;;5087821;28;20165;-60
2023/10/06 14:28:40;;;;;;;2.37;1.37;;;;;;;;;;5088044;28;20530;-60
2023/10/06 14:31:19;;;;;;;2.47;1.80;;;;;;;;;;5088347;28;20075;-60
2023/10/06 14:33:57;;;;;;;2.60;1.80;;;;;;;;;;5088058;28;20024;-60
2023/10/06 14:36:28;;;;;;;3.70;1.90;;;;;;;;;;5091567;28;20097;-59
2023/10/06 14:47:09;;;;;;;;;;;;;;;;;;5093285;28;20539;-60
2023/10/06 14:49:42;;;;;;;11.07;1.90;;;;;;;;;;5087945;28;19912;-59
2023/10/06 14:52:09;;;;;;;1.67;1.20;;;;;;;;;;5088141;28;20027;-60
2023/10/06 14:54:36;;;;;;;1.90;1.37;;;;;;;;;;5087898;28;20414;-60
2023/10/06 14:57:05;;;;;;;1.20;0.90;;;;;;;;;;5087645;28;20032;-61
2023/10/06 14:59:31;;;;;;;1.17;0.97;;;;;;;;;;5087754;28;20039;-60
2023/10/06 15:02:03;;;;;;;3.73;1.93;;;;;;;;;;5092539;28;20115;-60
2023/10/06 15:04:30;;;;;;;1.50;1.00;;;;;;;;;;5092559;28;20024;-59
2023/10/06 15:06:56;;;;;;;3.03;1.20;;;;;;;;;;5092212;28;20107;-60
2023/10/06 15:09:23;;;;;;;5.17;1.17;;;;;;;;;;5092145;28;20020;-60
2023/10/06 15:11:50;;;;;;;1.93;1.30;;;;;;;;;;5092316;28;20032;-60
2023/10/06 15:14:26;;;;;;;2.43;1.60;;;;;;;;;;5087680;28;20024;-60
2023/10/06 15:16:53;;;;;;;11.83;2.00;;;;;;;;;;5087605;28;20078;-60
2023/10/06 15:19:20;;;;;;;4.95;2.67;;;;;;;;;;5087186;28;20032;-60
2023/10/06 15:21:47;;;;;;;3.78;2.05;;;;;;;;;;5086994;28;20032;-60
2023/10/06 15:24:17;;;;;;;2.22;1.08;;;;;;;;;;5087010;28;20031;-60
2023/10/06 15:26:45;;;;;;;3.70;1.92;;;;;;;;;;5091767;28;20036;-60